sensor_id;sensor_type;location;lat;lon;timestamp;temperature;humidity
10451;DHT22;5273;51.290;6.918;2023-07-30T00:01:59;18.00;99.90
10451;DHT22;5273;51.290;6.918;2023-07-30T00:04:26;18.00;99.90
10451;DHT22;5273;51.290;6.918;2023-07-30T00:06:53;18.00;99.90
10451;DHT22;5273;51.290;6.918;2023-07-30T00:09:19;17.90;99.90
10451;DHT22;5273;51.290;6.918;2023-07-30T00:11:46;17.90;99.90
10451;DHT22;5273;51.290;6.918;2023-07-30T00:14:14;17.90;99.90
10451;DHT22;5273;51.290;6.918;2023-07-30T00:16:41;17.80;99.90
10451;DHT22;5273;51.290;6.918;2023-07-30T00:19:08;17.80;99.90
10451;DHT22;5273;51.290;6.918;2023-07-30T00:21:36;17.80;99.90
10451;DHT22;5273;51.290;6.918;2023-07-30T00:24:03;17.70;99.90
10451;DHT22;5273;51.290;6.918;2023-07-30T00:26:30;16.80;99.90
10451;DHT22;5273;51.290;6.918;2023-07-30T00:28:56;17.70;99.90
10451;DHT22;5273;51.290;6.918;2023-07-30T00:31:25;17.60;99.90
10451;DHT22;5273;51.290;6.918;2023-07-30T00:33:51;17.60;99.90
10451;DHT22;5273;51.290;6.918;2023-07-30T00:36:18;17.40;99.90
10451;DHT22;5273;51.290;6.918;2023-07-30T00:38:45;17.50;99.90
10451;DHT22;5273;51.290;6.918;2023-07-30T00:41:12;17.40;99.90
10451;DHT22;5273;51.290;6.918;2023-07-30T00:43:39;17.40;99.90
10451;DHT22;5273;51.290;6.918;2023-07-30T00:46:05;17.30;99.90
10451;DHT22;5273;51.290;6.918;2023-07-30T00:48:34;17.30;99.90
10451;DHT22;5273;51.290;6.918;2023-07-30T00:51:01;17.20;99.90
10451;DHT22;5273;51.290;6.918;2023-07-30T00:53:28;17.20;99.90
10451;DHT22;5273;51.290;6.918;2023-07-30T00:55:54;17.20;99.90
10451;DHT22;5273;51.290;6.918;2023-07-30T00:58:23;17.10;99.90
10451;DHT22;5273;51.290;6.918;2023-07-30T01:00:50;17.20;99.90
10451;DHT22;5273;51.290;6.918;2023-07-30T01:03:18;17.10;99.90
10451;DHT22;5273;51.290;6.918;2023-07-30T01:05:46;17.10;99.90
10451;DHT22;5273;51.290;6.918;2023-07-30T01:08:13;17.00;99.90
10451;DHT22;5273;51.290;6.918;2023-07-30T01:10:40;17.00;99.90
10451;DHT22;5273;51.290;6.918;2023-07-30T01:13:08;17.00;99.90
10451;DHT22;5273;51.290;6.918;2023-07-30T01:15:36;17.00;99.90
10451;DHT22;5273;51.290;6.918;2023-07-30T01:18:04;17.10;99.90
10451;DHT22;5273;51.290;6.918;2023-07-30T01:20:31;17.10;99.90
10451;DHT22;5273;51.290;6.918;2023-07-30T01:22:59;17.10;99.90
10451;DHT22;5273;51.290;6.918;2023-07-30T01:25:28;17.10;99.90
10451;DHT22;5273;51.290;6.918;2023-07-30T01:27:59;17.10;99.90
10451;DHT22;5273;51.290;6.918;2023-07-30T01:30:29;17.20;99.90
10451;DHT22;5273;51.290;6.918;2023-07-30T01:32:57;17.90;99.90
10451;DHT22;5273;51.290;6.918;2023-07-30T01:35:26;17.20;99.90
10451;DHT22;5273;51.290;6.918;2023-07-30T01:37:54;17.10;99.90
10451;DHT22;5273;51.290;6.918;2023-07-30T01:40:23;17.30;99.90
10451;DHT22;5273;51.290;6.918;2023-07-30T01:42:50;17.20;99.90
10451;DHT22;5273;51.290;6.918;2023-07-30T01:45:17;17.20;99.90
10451;DHT22;5273;51.290;6.918;2023-07-30T01:47:44;16.30;99.90
10451;DHT22;5273;51.290;6.918;2023-07-30T01:50:11;17.10;99.90
10451;DHT22;5273;51.290;6.918;2023-07-30T01:52:37;17.20;99.90
10451;DHT22;5273;51.290;6.918;2023-07-30T01:55:05;17.20;99.90
10451;DHT22;5273;51.290;6.918;2023-07-30T01:57:34;17.20;99.90
10451;DHT22;5273;51.290;6.918;2023-07-30T02:00:00;17.20;99.90
10451;DHT22;5273;51.290;6.918;2023-07-30T02:02:28;17.20;99.90
10451;DHT22;5273;51.290;6.918;2023-07-30T02:04:55;17.20;99.90
10451;DHT22;5273;51.290;6.918;2023-07-30T02:07:22;17.20;99.90
10451;DHT22;5273;51.290;6.918;2023-07-30T02:09:49;17.20;99.90
10451;DHT22;5273;51.290;6.918;2023-07-30T02:12:15;17.10;99.90
10451;DHT22;5273;51.290;6.918;2023-07-30T02:14:44;17.20;99.90
10451;DHT22;5273;51.290;6.918;2023-07-30T02:17:10;17.10;99.90
10451;DHT22;5273;51.290;6.918;2023-07-30T02:19:37;17.00;99.90
10451;DHT22;5273;51.290;6.918;2023-07-30T02:22:04;17.10;99.90
10451;DHT22;5273;51.290;6.918;2023-07-30T02:24:31;17.10;99.90
10451;DHT22;5273;51.290;6.918;2023-07-30T02:26:58;16.50;99.90
10451;DHT22;5273;51.290;6.918;2023-07-30T02:29:25;17.00;99.90
10451;DHT22;5273;51.290;6.918;2023-07-30T02:31:53;17.00;99.90
10451;DHT22;5273;51.290;6.918;2023-07-30T02:34:20;17.00;99.90
10451;DHT22;5273;51.290;6.918;2023-07-30T02:36:47;17.00;99.90
10451;DHT22;5273;51.290;6.918;2023-07-30T02:39:14;16.90;99.90
10451;DHT22;5273;51.290;6.918;2023-07-30T02:41:41;16.90;99.90
10451;DHT22;5273;51.290;6.918;2023-07-30T02:44:08;16.90;99.90
10451;DHT22;5273;51.290;6.918;2023-07-30T02:46:35;16.90;99.90
10451;DHT22;5273;51.290;6.918;2023-07-30T02:49:03;16.90;99.90
10451;DHT22;5273;51.290;6.918;2023-07-30T02:51:30;16.90;99.90
10451;DHT22;5273;51.290;6.918;2023-07-30T02:53:58;16.80;99.90
10451;DHT22;5273;51.290;6.918;2023-07-30T02:56:25;16.70;99.90
10451;DHT22;5273;51.290;6.918;2023-07-30T02:58:52;16.70;99.90
10451;DHT22;5273;51.290;6.918;2023-07-30T03:01:18;16.70;99.90
10451;DHT22;5273;51.290;6.918;2023-07-30T03:03:45;16.60;99.90
10451;DHT22;5273;51.290;6.918;2023-07-30T03:06:13;16.60;99.90
10451;DHT22;5273;51.290;6.918;2023-07-30T03:08:42;16.50;99.90
10451;DHT22;5273;51.290;6.918;2023-07-30T03:11:09;16.50;99.90
10451;DHT22;5273;51.290;6.918;2023-07-30T03:13:36;16.50;99.90
10451;DHT22;5273;51.290;6.918;2023-07-30T03:16:03;16.40;99.90
10451;DHT22;5273;51.290;6.918;2023-07-30T03:18:30;16.40;99.90
10451;DHT22;5273;51.290;6.918;2023-07-30T03:20:58;16.30;99.90
10451;DHT22;5273;51.290;6.918;2023-07-30T03:23:27;16.30;99.90
10451;DHT22;5273;51.290;6.918;2023-07-30T03:25:54;16.20;99.90
10451;DHT22;5273;51.290;6.918;2023-07-30T03:28:21;16.20;99.90
10451;DHT22;5273;51.290;6.918;2023-07-30T03:30:47;16.20;99.90
10451;DHT22;5273;51.290;6.918;2023-07-30T03:33:14;16.20;99.90
10451;DHT22;5273;51.290;6.918;2023-07-30T03:35:41;16.10;99.90
10451;DHT22;5273;51.290;6.918;2023-07-30T03:38:08;16.10;99.90
10451;DHT22;5273;51.290;6.918;2023-07-30T03:40:36;16.00;99.90
10451;DHT22;5273;51.290;6.918;2023-07-30T03:43:02;15.90;99.90
10451;DHT22;5273;51.290;6.918;2023-07-30T03:45:29;15.90;99.90
10451;DHT22;5273;51.290;6.918;2023-07-30T03:47:56;15.90;99.90
10451;DHT22;5273;51.290;6.918;2023-07-30T03:50:23;15.90;99.90
10451;DHT22;5273;51.290;6.918;2023-07-30T03:52:50;15.90;99.90
10451;DHT22;5273;51.290;6.918;2023-07-30T03:55:16;15.80;99.90
10451;DHT22;5273;51.290;6.918;2023-07-30T03:57:45;16.70;99.90
10451;DHT22;5273;51.290;6.918;2023-07-30T04:00:11;15.90;99.90
10451;DHT22;5273;51.290;6.918;2023-07-30T04:02:38;15.90;99.90
10451;DHT22;5273;51.290;6.918;2023-07-30T04:05:05;15.90;99.90
10451;DHT22;5273;51.290;6.918;2023-07-30T04:07:32;16.00;99.90
10451;DHT22;5273;51.290;6.918;2023-07-30T04:09:59;16.00;99.90
10451;DHT22;5273;51.290;6.918;2023-07-30T04:12:26;16.00;99.90
10451;DHT22;5273;51.290;6.918;2023-07-30T04:14:54;16.00;99.90
10451;DHT22;5273;51.290;6.918;2023-07-30T04:17:21;16.00;99.90
10451;DHT22;5273;51.290;6.918;2023-07-30T04:19:47;16.10;99.90
10451;DHT22;5273;51.290;6.918;2023-07-30T04:22:14;16.20;99.90
10451;DHT22;5273;51.290;6.918;2023-07-30T04:24:41;16.20;99.90
10451;DHT22;5273;51.290;6.918;2023-07-30T04:27:08;16.20;99.90
10451;DHT22;5273;51.290;6.918;2023-07-30T04:29:35;16.30;99.90
10451;DHT22;5273;51.290;6.918;2023-07-30T04:32:03;16.30;99.90
10451;DHT22;5273;51.290;6.918;2023-07-30T04:34:30;16.40;99.90
10451;DHT22;5273;51.290;6.918;2023-07-30T04:36:57;16.40;99.90
10451;DHT22;5273;51.290;6.918;2023-07-30T04:39:24;16.50;99.90
10451;DHT22;5273;51.290;6.918;2023-07-30T04:41:51;16.40;99.90
10451;DHT22;5273;51.290;6.918;2023-07-30T04:44:17;16.40;99.90
10451;DHT22;5273;51.290;6.918;2023-07-30T04:46:44;16.50;99.90
10451;DHT22;5273;51.290;6.918;2023-07-30T04:49:12;16.50;99.90
10451;DHT22;5273;51.290;6.918;2023-07-30T04:51:39;16.60;99.90
10451;DHT22;5273;51.290;6.918;2023-07-30T04:54:06;16.60;99.90
10451;DHT22;5273;51.290;6.918;2023-07-30T04:56:33;16.60;99.90
10451;DHT22;5273;51.290;6.918;2023-07-30T04:59:00;16.90;99.90
10451;DHT22;5273;51.290;6.918;2023-07-30T05:01:27;17.00;99.90
10451;DHT22;5273;51.290;6.918;2023-07-30T05:03:54;16.60;99.90
10451;DHT22;5273;51.290;6.918;2023-07-30T05:06:22;16.50;99.90
10451;DHT22;5273;51.290;6.918;2023-07-30T05:08:49;17.00;99.90
10451;DHT22;5273;51.290;6.918;2023-07-30T05:11:16;16.50;99.90
10451;DHT22;5273;51.290;6.918;2023-07-30T05:13:42;16.50;99.90
10451;DHT22;5273;51.290;6.918;2023-07-30T05:16:09;16.40;99.90
10451;DHT22;5273;51.290;6.918;2023-07-30T05:18:36;16.40;99.90
10451;DHT22;5273;51.290;6.918;2023-07-30T05:21:03;16.40;99.90
10451;DHT22;5273;51.290;6.918;2023-07-30T05:23:31;16.40;99.90
10451;DHT22;5273;51.290;6.918;2023-07-30T05:25:58;16.50;99.90
10451;DHT22;5273;51.290;6.918;2023-07-30T05:28:25;16.50;99.90
10451;DHT22;5273;51.290;6.918;2023-07-30T05:30:52;16.50;99.90
10451;DHT22;5273;51.290;6.918;2023-07-30T05:33:19;16.50;99.90
10451;DHT22;5273;51.290;6.918;2023-07-30T05:35:45;16.40;99.90
10451;DHT22;5273;51.290;6.918;2023-07-30T05:38:13;16.40;99.90
10451;DHT22;5273;51.290;6.918;2023-07-30T05:40:41;16.40;99.90
10451;DHT22;5273;51.290;6.918;2023-07-30T05:43:08;16.70;99.90
10451;DHT22;5273;51.290;6.918;2023-07-30T05:45:35;16.40;99.90
10451;DHT22;5273;51.290;6.918;2023-07-30T05:48:02;16.30;99.90
10451;DHT22;5273;51.290;6.918;2023-07-30T05:50:29;16.40;99.90
10451;DHT22;5273;51.290;6.918;2023-07-30T05:52:56;16.40;99.90
10451;DHT22;5273;51.290;6.918;2023-07-30T05:55:22;16.40;99.90
10451;DHT22;5273;51.290;6.918;2023-07-30T05:57:50;16.40;99.90
10451;DHT22;5273;51.290;6.918;2023-07-30T06:00:19;16.30;99.90
10451;DHT22;5273;51.290;6.918;2023-07-30T06:02:45;16.30;99.90
10451;DHT22;5273;51.290;6.918;2023-07-30T06:05:12;16.40;99.90
10451;DHT22;5273;51.290;6.918;2023-07-30T06:07:39;16.80;99.90
10451;DHT22;5273;51.290;6.918;2023-07-30T06:10:07;16.40;99.90
10451;DHT22;5273;51.290;6.918;2023-07-30T06:12:33;16.40;99.90
10451;DHT22;5273;51.290;6.918;2023-07-30T06:15:02;16.40;99.90
10451;DHT22;5273;51.290;6.918;2023-07-30T06:17:29;16.40;99.90
10451;DHT22;5273;51.290;6.918;2023-07-30T06:19:55;16.40;99.90
10451;DHT22;5273;51.290;6.918;2023-07-30T06:22:22;16.50;99.90
10451;DHT22;5273;51.290;6.918;2023-07-30T06:24:49;16.50;99.90
10451;DHT22;5273;51.290;6.918;2023-07-30T06:27:16;16.40;99.90
10451;DHT22;5273;51.290;6.918;2023-07-30T06:29:43;16.40;99.90
10451;DHT22;5273;51.290;6.918;2023-07-30T06:32:11;16.50;99.90
10451;DHT22;5273;51.290;6.918;2023-07-30T06:34:37;16.60;99.90
10451;DHT22;5273;51.290;6.918;2023-07-30T06:37:04;16.60;99.90
10451;DHT22;5273;51.290;6.918;2023-07-30T06:39:31;16.60;99.90
10451;DHT22;5273;51.290;6.918;2023-07-30T06:41:58;16.60;99.90
10451;DHT22;5273;51.290;6.918;2023-07-30T06:44:25;16.70;99.90
10451;DHT22;5273;51.290;6.918;2023-07-30T06:46:52;16.70;99.90
10451;DHT22;5273;51.290;6.918;2023-07-30T06:49:20;16.70;99.90
10451;DHT22;5273;51.290;6.918;2023-07-30T06:51:47;16.70;99.90
10451;DHT22;5273;51.290;6.918;2023-07-30T06:54:13;16.70;99.90
10451;DHT22;5273;51.290;6.918;2023-07-30T06:56:40;16.80;99.90
10451;DHT22;5273;51.290;6.918;2023-07-30T06:59:07;16.70;99.90
10451;DHT22;5273;51.290;6.918;2023-07-30T07:01:34;16.90;99.90
10451;DHT22;5273;51.290;6.918;2023-07-30T07:04:00;16.80;99.90
10451;DHT22;5273;51.290;6.918;2023-07-30T07:06:29;16.80;99.90
10451;DHT22;5273;51.290;6.918;2023-07-30T07:08:55;16.80;99.90
10451;DHT22;5273;51.290;6.918;2023-07-30T07:11:23;16.80;99.90
10451;DHT22;5273;51.290;6.918;2023-07-30T07:13:50;16.90;99.90
10451;DHT22;5273;51.290;6.918;2023-07-30T07:16:17;16.80;99.90
10451;DHT22;5273;51.290;6.918;2023-07-30T07:18:44;16.80;99.90
10451;DHT22;5273;51.290;6.918;2023-07-30T07:21:11;16.80;99.90
10451;DHT22;5273;51.290;6.918;2023-07-30T07:23:39;16.80;99.90
10451;DHT22;5273;51.290;6.918;2023-07-30T07:26:05;16.80;99.90
10451;DHT22;5273;51.290;6.918;2023-07-30T07:28:32;16.90;99.90
10451;DHT22;5273;51.290;6.918;2023-07-30T07:30:59;16.90;99.90
10451;DHT22;5273;51.290;6.918;2023-07-30T07:33:27;16.90;99.90
10451;DHT22;5273;51.290;6.918;2023-07-30T07:36:03;16.90;99.90
10451;DHT22;5273;51.290;6.918;2023-07-30T07:38:30;16.90;99.90
10451;DHT22;5273;51.290;6.918;2023-07-30T07:40:59;16.90;99.90
10451;DHT22;5273;51.290;6.918;2023-07-30T07:43:25;16.90;99.90
10451;DHT22;5273;51.290;6.918;2023-07-30T07:45:52;17.00;99.90
10451;DHT22;5273;51.290;6.918;2023-07-30T07:48:19;17.10;99.90
10451;DHT22;5273;51.290;6.918;2023-07-30T07:50:46;17.10;99.90
10451;DHT22;5273;51.290;6.918;2023-07-30T07:53:13;17.20;99.90
10451;DHT22;5273;51.290;6.918;2023-07-30T07:55:40;17.30;99.90
10451;DHT22;5273;51.290;6.918;2023-07-30T07:58:08;17.30;99.90
10451;DHT22;5273;51.290;6.918;2023-07-30T08:00:35;17.40;99.90
10451;DHT22;5273;51.290;6.918;2023-07-30T08:03:02;17.40;99.90
10451;DHT22;5273;51.290;6.918;2023-07-30T08:05:28;17.40;99.90
10451;DHT22;5273;51.290;6.918;2023-07-30T08:07:55;17.50;99.90
10451;DHT22;5273;51.290;6.918;2023-07-30T08:10:22;17.50;99.90
10451;DHT22;5273;51.290;6.918;2023-07-30T08:12:49;17.60;99.90
10451;DHT22;5273;51.290;6.918;2023-07-30T08:15:17;17.60;99.90
10451;DHT22;5273;51.290;6.918;2023-07-30T08:17:44;17.70;99.90
10451;DHT22;5273;51.290;6.918;2023-07-30T08:20:11;17.70;99.90
10451;DHT22;5273;51.290;6.918;2023-07-30T08:22:38;17.70;99.90
10451;DHT22;5273;51.290;6.918;2023-07-30T08:25:05;17.70;99.90
10451;DHT22;5273;51.290;6.918;2023-07-30T08:27:32;17.70;99.90
10451;DHT22;5273;51.290;6.918;2023-07-30T08:29:59;17.80;99.90
10451;DHT22;5273;51.290;6.918;2023-07-30T08:32:27;17.90;99.90
10451;DHT22;5273;51.290;6.918;2023-07-30T08:34:54;18.00;99.90
10451;DHT22;5273;51.290;6.918;2023-07-30T08:37:21;18.00;99.90
10451;DHT22;5273;51.290;6.918;2023-07-30T08:39:48;18.10;99.90
10451;DHT22;5273;51.290;6.918;2023-07-30T08:42:15;18.30;99.90
10451;DHT22;5273;51.290;6.918;2023-07-30T08:44:42;18.50;99.90
10451;DHT22;5273;51.290;6.918;2023-07-30T08:47:09;19.00;99.90
10451;DHT22;5273;51.290;6.918;2023-07-30T08:49:38;19.00;99.90
10451;DHT22;5273;51.290;6.918;2023-07-30T08:52:08;19.30;99.90
10451;DHT22;5273;51.290;6.918;2023-07-30T08:54:36;19.10;99.90
10451;DHT22;5273;51.290;6.918;2023-07-30T08:57:04;19.70;99.90
10451;DHT22;5273;51.290;6.918;2023-07-30T08:59:33;19.70;99.90
10451;DHT22;5273;51.290;6.918;2023-07-30T09:02:04;19.70;99.90
10451;DHT22;5273;51.290;6.918;2023-07-30T09:04:34;19.80;99.90
10451;DHT22;5273;51.290;6.918;2023-07-30T09:07:08;19.90;99.90
10451;DHT22;5273;51.290;6.918;2023-07-30T09:09:36;19.90;99.90
10451;DHT22;5273;51.290;6.918;2023-07-30T09:12:04;19.90;99.90
10451;DHT22;5273;51.290;6.918;2023-07-30T09:14:31;20.00;99.90
10451;DHT22;5273;51.290;6.918;2023-07-30T09:16:58;20.20;99.90
10451;DHT22;5273;51.290;6.918;2023-07-30T09:19:25;20.40;99.90
10451;DHT22;5273;51.290;6.918;2023-07-30T09:21:52;20.60;99.90
10451;DHT22;5273;51.290;6.918;2023-07-30T09:24:22;21.30;99.90
10451;DHT22;5273;51.290;6.918;2023-07-30T09:26:49;22.70;99.90
10451;DHT22;5273;51.290;6.918;2023-07-30T09:29:16;24.00;96.80
10451;DHT22;5273;51.290;6.918;2023-07-30T09:31:46;24.70;93.80
10451;DHT22;5273;51.290;6.918;2023-07-30T09:34:15;24.80;92.70
10451;DHT22;5273;51.290;6.918;2023-07-30T09:36:44;25.00;92.60
10451;DHT22;5273;51.290;6.918;2023-07-30T09:39:15;25.00;92.10
10451;DHT22;5273;51.290;6.918;2023-07-30T09:41:43;25.30;91.80
10451;DHT22;5273;51.290;6.918;2023-07-30T09:44:11;26.10;90.70
10451;DHT22;5273;51.290;6.918;2023-07-30T09:46:42;26.80;85.70
10451;DHT22;5273;51.290;6.918;2023-07-30T09:49:09;27.50;86.00
10451;DHT22;5273;51.290;6.918;2023-07-30T09:51:37;28.40;80.00
10451;DHT22;5273;51.290;6.918;2023-07-30T09:54:06;29.10;78.30
10451;DHT22;5273;51.290;6.918;2023-07-30T09:56:33;29.50;72.70
10451;DHT22;5273;51.290;6.918;2023-07-30T09:59:01;30.00;69.80
10451;DHT22;5273;51.290;6.918;2023-07-30T10:01:28;30.20;65.90
10451;DHT22;5273;51.290;6.918;2023-07-30T10:03:57;30.00;65.30
10451;DHT22;5273;51.290;6.918;2023-07-30T10:06:25;29.80;63.70
10451;DHT22;5273;51.290;6.918;2023-07-30T10:08:55;29.40;66.30
10451;DHT22;5273;51.290;6.918;2023-07-30T10:11:22;29.40;67.40
10451;DHT22;5273;51.290;6.918;2023-07-30T10:13:50;29.40;66.70
10451;DHT22;5273;51.290;6.918;2023-07-30T10:16:21;29.70;66.00
10451;DHT22;5273;51.290;6.918;2023-07-30T10:18:55;29.90;60.60
10451;DHT22;5273;51.290;6.918;2023-07-30T10:21:24;29.60;64.70
10451;DHT22;5273;51.290;6.918;2023-07-30T10:23:59;29.20;63.20
10451;DHT22;5273;51.290;6.918;2023-07-30T10:26:30;29.00;61.70
10451;DHT22;5273;51.290;6.918;2023-07-30T10:29:10;28.90;66.30
10451;DHT22;5273;51.290;6.918;2023-07-30T10:31:43;29.10;64.60
10451;DHT22;5273;51.290;6.918;2023-07-30T10:34:10;28.90;61.60
10451;DHT22;5273;51.290;6.918;2023-07-30T10:36:42;28.70;62.40
10451;DHT22;5273;51.290;6.918;2023-07-30T10:39:15;28.50;62.60
10451;DHT22;5273;51.290;6.918;2023-07-30T10:41:44;28.00;62.80
10451;DHT22;5273;51.290;6.918;2023-07-30T10:44:18;27.50;64.10
10451;DHT22;5273;51.290;6.918;2023-07-30T10:46:47;27.00;65.60
10451;DHT22;5273;51.290;6.918;2023-07-30T10:49:13;26.90;65.50
10451;DHT22;5273;51.290;6.918;2023-07-30T10:51:40;26.70;66.90
10451;DHT22;5273;51.290;6.918;2023-07-30T10:54:07;26.60;68.30
10451;DHT22;5273;51.290;6.918;2023-07-30T10:56:35;26.90;68.60
10451;DHT22;5273;51.290;6.918;2023-07-30T10:59:04;26.10;71.50
10451;DHT22;5273;51.290;6.918;2023-07-30T11:01:31;26.20;71.80
10451;DHT22;5273;51.290;6.918;2023-07-30T11:03:59;26.20;71.30
10451;DHT22;5273;51.290;6.918;2023-07-30T11:06:27;26.20;69.80
10451;DHT22;5273;51.290;6.918;2023-07-30T11:08:53;26.00;70.60
10451;DHT22;5273;51.290;6.918;2023-07-30T11:11:20;25.70;69.30
10451;DHT22;5273;51.290;6.918;2023-07-30T11:13:50;25.20;70.80
10451;DHT22;5273;51.290;6.918;2023-07-30T11:16:17;24.90;72.10
10451;DHT22;5273;51.290;6.918;2023-07-30T11:18:44;24.80;73.20
10451;DHT22;5273;51.290;6.918;2023-07-30T11:21:14;24.70;73.00
10451;DHT22;5273;51.290;6.918;2023-07-30T11:23:43;24.90;75.00
10451;DHT22;5273;51.290;6.918;2023-07-30T11:26:14;25.20;73.40
10451;DHT22;5273;51.290;6.918;2023-07-30T11:28:41;25.40;70.40
10451;DHT22;5273;51.290;6.918;2023-07-30T11:31:09;25.30;69.90
10451;DHT22;5273;51.290;6.918;2023-07-30T11:33:38;25.20;70.80
10451;DHT22;5273;51.290;6.918;2023-07-30T11:36:07;25.00;71.00
10451;DHT22;5273;51.290;6.918;2023-07-30T11:38:36;24.80;70.80
10451;DHT22;5273;51.290;6.918;2023-07-30T12:01:16;24.50;71.60
10451;DHT22;5273;51.290;6.918;2023-07-30T12:03:43;25.50;73.00
10451;DHT22;5273;51.290;6.918;2023-07-30T12:06:10;25.50;71.10
10451;DHT22;5273;51.290;6.918;2023-07-30T12:08:38;25.30;71.20
10451;DHT22;5273;51.290;6.918;2023-07-30T12:11:06;25.20;72.20
10451;DHT22;5273;51.290;6.918;2023-07-30T12:13:33;25.00;72.40
10451;DHT22;5273;51.290;6.918;2023-07-30T12:16:00;24.90;74.40
10451;DHT22;5273;51.290;6.918;2023-07-30T12:18:28;24.90;73.80
10451;DHT22;5273;51.290;6.918;2023-07-30T12:20:55;24.90;74.40
10451;DHT22;5273;51.290;6.918;2023-07-30T12:23:23;24.80;75.30
10451;DHT22;5273;51.290;6.918;2023-07-30T12:25:50;24.90;75.70
10451;DHT22;5273;51.290;6.918;2023-07-30T12:28:17;24.80;74.60
10451;DHT22;5273;51.290;6.918;2023-07-30T12:30:44;24.60;72.60
10451;DHT22;5273;51.290;6.918;2023-07-30T12:33:11;24.60;74.70
10451;DHT22;5273;51.290;6.918;2023-07-30T12:35:39;24.60;72.60
10451;DHT22;5273;51.290;6.918;2023-07-30T12:38:06;24.50;71.50
10451;DHT22;5273;51.290;6.918;2023-07-30T12:40:33;24.50;72.70
10451;DHT22;5273;51.290;6.918;2023-07-30T12:43:01;24.50;69.30
10451;DHT22;5273;51.290;6.918;2023-07-30T12:45:28;24.30;70.10
10451;DHT22;5273;51.290;6.918;2023-07-30T12:47:55;24.40;70.00
10451;DHT22;5273;51.290;6.918;2023-07-30T12:50:22;24.50;69.50
10451;DHT22;5273;51.290;6.918;2023-07-30T12:52:50;24.50;68.60
10451;DHT22;5273;51.290;6.918;2023-07-30T12:55:17;24.50;68.80
10451;DHT22;5273;51.290;6.918;2023-07-30T12:57:43;24.40;68.80
10451;DHT22;5273;51.290;6.918;2023-07-30T13:00:11;24.40;69.80
10451;DHT22;5273;51.290;6.918;2023-07-30T13:02:38;24.30;70.60
10451;DHT22;5273;51.290;6.918;2023-07-30T13:05:05;24.20;72.40
10451;DHT22;5273;51.290;6.918;2023-07-30T13:07:32;24.10;71.10
10451;DHT22;5273;51.290;6.918;2023-07-30T13:10:05;24.00;73.20
10451;DHT22;5273;51.290;6.918;2023-07-30T13:12:32;23.80;71.70
10451;DHT22;5273;51.290;6.918;2023-07-30T13:14:59;23.80;71.60
10451;DHT22;5273;51.290;6.918;2023-07-30T13:17:26;23.10;69.00
10451;DHT22;5273;51.290;6.918;2023-07-30T13:19:53;23.60;69.50
10451;DHT22;5273;51.290;6.918;2023-07-30T13:22:20;23.60;70.40
10451;DHT22;5273;51.290;6.918;2023-07-30T13:24:47;23.70;72.40
10451;DHT22;5273;51.290;6.918;2023-07-30T13:27:15;23.80;71.70
10451;DHT22;5273;51.290;6.918;2023-07-30T13:29:42;23.80;71.20
10451;DHT22;5273;51.290;6.918;2023-07-30T13:32:08;23.70;72.20
10451;DHT22;5273;51.290;6.918;2023-07-30T13:34:35;23.70;74.50
10451;DHT22;5273;51.290;6.918;2023-07-30T13:37:02;23.70;75.60
10451;DHT22;5273;51.290;6.918;2023-07-30T13:39:29;23.70;74.50
10451;DHT22;5273;51.290;6.918;2023-07-30T13:41:56;23.70;77.80
10451;DHT22;5273;51.290;6.918;2023-07-30T13:44:24;23.70;72.70
10451;DHT22;5273;51.290;6.918;2023-07-30T13:46:51;23.60;75.80
10451;DHT22;5273;51.290;6.918;2023-07-30T13:49:19;23.60;74.20
10451;DHT22;5273;51.290;6.918;2023-07-30T13:51:46;23.70;75.80
10451;DHT22;5273;51.290;6.918;2023-07-30T13:54:12;23.70;75.40
10451;DHT22;5273;51.290;6.918;2023-07-30T13:56:39;23.70;74.70
10451;DHT22;5273;51.290;6.918;2023-07-30T13:59:06;23.70;76.10
10451;DHT22;5273;51.290;6.918;2023-07-30T14:01:34;23.80;74.70
10451;DHT22;5273;51.290;6.918;2023-07-30T14:04:01;23.70;72.80
10451;DHT22;5273;51.290;6.918;2023-07-30T14:06:28;23.70;74.40
10451;DHT22;5273;51.290;6.918;2023-07-30T14:08:56;23.70;74.90
10451;DHT22;5273;51.290;6.918;2023-07-30T14:11:25;23.70;76.10
10451;DHT22;5273;51.290;6.918;2023-07-30T14:13:51;23.80;75.40
10451;DHT22;5273;51.290;6.918;2023-07-30T14:16:18;24.00;76.10
10451;DHT22;5273;51.290;6.918;2023-07-30T14:18:46;24.00;75.80
10451;DHT22;5273;51.290;6.918;2023-07-30T14:21:13;24.00;74.90
10451;DHT22;5273;51.290;6.918;2023-07-30T14:23:40;24.00;75.50
10451;DHT22;5273;51.290;6.918;2023-07-30T14:26:07;24.00;75.80
10451;DHT22;5273;51.290;6.918;2023-07-30T14:28:34;24.10;75.00
10451;DHT22;5273;51.290;6.918;2023-07-30T14:31:00;24.20;73.80
10451;DHT22;5273;51.290;6.918;2023-07-30T14:33:27;24.20;73.20
10451;DHT22;5273;51.290;6.918;2023-07-30T14:35:55;24.20;73.10
10451;DHT22;5273;51.290;6.918;2023-07-30T14:38:22;24.10;75.20
10451;DHT22;5273;51.290;6.918;2023-07-30T14:40:49;24.20;73.90
10451;DHT22;5273;51.290;6.918;2023-07-30T14:43:16;24.10;74.20
10451;DHT22;5273;51.290;6.918;2023-07-30T14:45:42;24.00;75.70
10451;DHT22;5273;51.290;6.918;2023-07-30T14:48:09;24.10;78.40
10451;DHT22;5273;51.290;6.918;2023-07-30T14:50:36;24.10;75.60
10451;DHT22;5273;51.290;6.918;2023-07-30T14:53:04;24.00;77.10
10451;DHT22;5273;51.290;6.918;2023-07-30T14:55:31;24.00;77.30
10451;DHT22;5273;51.290;6.918;2023-07-30T14:57:58;24.00;77.30
10451;DHT22;5273;51.290;6.918;2023-07-30T15:00:26;24.10;78.60
10451;DHT22;5273;51.290;6.918;2023-07-30T15:02:53;24.20;78.70
10451;DHT22;5273;51.290;6.918;2023-07-30T15:05:20;24.20;78.90
10451;DHT22;5273;51.290;6.918;2023-07-30T15:07:46;24.20;78.00
10451;DHT22;5273;51.290;6.918;2023-07-30T15:10:15;24.20;78.30
10451;DHT22;5273;51.290;6.918;2023-07-30T15:12:42;24.20;76.90
10451;DHT22;5273;51.290;6.918;2023-07-30T15:15:10;24.30;78.00
10451;DHT22;5273;51.290;6.918;2023-07-30T15:17:37;24.40;76.50
10451;DHT22;5273;51.290;6.918;2023-07-30T15:20:04;24.50;74.80
10451;DHT22;5273;51.290;6.918;2023-07-30T15:22:31;24.50;73.60
10451;DHT22;5273;51.290;6.918;2023-07-30T15:24:58;24.40;73.50
10451;DHT22;5273;51.290;6.918;2023-07-30T15:27:26;24.30;74.10
10451;DHT22;5273;51.290;6.918;2023-07-30T15:29:53;24.30;71.50
10451;DHT22;5273;51.290;6.918;2023-07-30T15:32:20;24.20;73.30
10451;DHT22;5273;51.290;6.918;2023-07-30T15:34:47;24.20;72.90
10451;DHT22;5273;51.290;6.918;2023-07-30T15:37:13;24.20;71.90
10451;DHT22;5273;51.290;6.918;2023-07-30T15:39:40;24.20;75.20
10451;DHT22;5273;51.290;6.918;2023-07-30T15:42:07;24.20;73.60
10451;DHT22;5273;51.290;6.918;2023-07-30T15:44:35;24.20;74.70
10451;DHT22;5273;51.290;6.918;2023-07-30T15:47:02;24.10;71.90
10451;DHT22;5273;51.290;6.918;2023-07-30T15:49:29;24.00;73.00
10451;DHT22;5273;51.290;6.918;2023-07-30T15:51:57;24.10;74.10
10451;DHT22;5273;51.290;6.918;2023-07-30T15:54:31;24.20;72.40
10451;DHT22;5273;51.290;6.918;2023-07-30T15:56:58;24.40;72.00
10451;DHT22;5273;51.290;6.918;2023-07-30T15:59:25;24.20;68.70
10451;DHT22;5273;51.290;6.918;2023-07-30T16:01:53;24.10;67.80
10451;DHT22;5273;51.290;6.918;2023-07-30T16:04:21;24.10;67.80
10451;DHT22;5273;51.290;6.918;2023-07-30T16:06:48;24.00;68.50